sensor_id;sensor_type;location;lat;lon;timestamp;pressure;altitude;pressure_sealevel;temperature;humidity
1616;BME280;801;47.982;7.810;2024-01-10T00:02:14;99367.88;;;-1.52;100.00
1616;BME280;801;47.982;7.810;2024-01-10T00:04:40;99369.03;;;-1.71;100.00
1616;BME280;801;47.982;7.810;2024-01-10T00:07:07;99366.53;;;-1.73;100.00
1616;BME280;801;47.982;7.810;2024-01-10T00:09:35;99361.97;;;-1.62;100.00
1616;BME280;801;47.982;7.810;2024-01-10T00:12:01;99366.38;;;-1.79;100.00
1616;BME280;801;47.982;7.810;2024-01-10T00:14:28;99359.16;;;-1.61;100.00
1616;BME280;801;47.982;7.810;2024-01-10T00:16:54;99361.44;;;-1.74;100.00
1616;BME280;801;47.982;7.810;2024-01-10T00:19:21;99359.81;;;-1.59;100.00
1616;BME280;801;47.982;7.810;2024-01-10T00:21:47;99357.19;;;-1.51;100.00
1616;BME280;801;47.982;7.810;2024-01-10T00:24:14;99364.09;;;-1.50;100.00
1616;BME280;801;47.982;7.810;2024-01-10T00:26:41;99357.34;;;-1.52;100.00
1616;BME280;801;47.982;7.810;2024-01-10T00:29:08;99353.88;;;-1.61;100.00
1616;BME280;801;47.982;7.810;2024-01-10T00:31:35;99354.53;;;-1.67;100.00
1616;BME280;801;47.982;7.810;2024-01-10T00:34:01;99347.13;;;-1.55;100.00
1616;BME280;801;47.982;7.810;2024-01-10T00:36:27;99357.50;;;-1.62;100.00
1616;BME280;801;47.982;7.810;2024-01-10T00:38:54;99352.88;;;-1.68;100.00
1616;BME280;801;47.982;7.810;2024-01-10T00:41:21;99355.09;;;-2.14;100.00
1616;BME280;801;47.982;7.810;2024-01-10T00:43:49;99352.50;;;-1.98;100.00
1616;BME280;801;47.982;7.810;2024-01-10T00:46:15;99358.22;;;-2.11;100.00
1616;BME280;801;47.982;7.810;2024-01-10T00:48:41;99360.50;;;-2.16;100.00
1616;BME280;801;47.982;7.810;2024-01-10T00:51:08;99352.47;;;-2.14;100.00
1616;BME280;801;47.982;7.810;2024-01-10T00:53:34;99350.72;;;-1.89;100.00
1616;BME280;801;47.982;7.810;2024-01-10T00:56:04;99360.09;;;-1.86;100.00
1616;BME280;801;47.982;7.810;2024-01-10T00:58:30;99356.63;;;-1.95;100.00
1616;BME280;801;47.982;7.810;2024-01-10T01:00:58;99349.84;;;-2.14;100.00
1616;BME280;801;47.982;7.810;2024-01-10T01:03:25;99351.00;;;-1.92;100.00
1616;BME280;801;47.982;7.810;2024-01-10T01:05:51;99359.25;;;-1.95;100.00
1616;BME280;801;47.982;7.810;2024-01-10T01:08:18;99359.41;;;-1.97;100.00
1616;BME280;801;47.982;7.810;2024-01-10T01:10:45;99358.69;;;-2.15;100.00
1616;BME280;801;47.982;7.810;2024-01-10T01:13:11;99362.00;;;-2.13;100.00
1616;BME280;801;47.982;7.810;2024-01-10T01:15:38;99356.06;;;-2.15;100.00
1616;BME280;801;47.982;7.810;2024-01-10T01:18:06;99360.75;;;-2.01;100.00
1616;BME280;801;47.982;7.810;2024-01-10T01:20:35;99351.50;;;-2.05;100.00
1616;BME280;801;47.982;7.810;2024-01-10T01:23:01;99360.06;;;-2.03;100.00
1616;BME280;801;47.982;7.810;2024-01-10T01:25:28;99358.38;;;-2.20;100.00
1616;BME280;801;47.982;7.810;2024-01-10T01:27:54;99364.97;;;-2.08;100.00
1616;BME280;801;47.982;7.810;2024-01-10T01:30:21;99362.97;;;-2.22;100.00
1616;BME280;801;47.982;7.810;2024-01-10T01:32:47;99365.59;;;-2.22;100.00
1616;BME280;801;47.982;7.810;2024-01-10T01:35:15;99368.19;;;-2.31;100.00
1616;BME280;801;47.982;7.810;2024-01-10T01:37:46;99369.75;;;-2.03;100.00
1616;BME280;801;47.982;7.810;2024-01-10T01:40:13;99370.91;;;-2.14;100.00
1616;BME280;801;47.982;7.810;2024-01-10T01:42:39;99372.56;;;-2.05;100.00
1616;BME280;801;47.982;7.810;2024-01-10T01:45:06;99377.56;;;-2.28;100.00
1616;BME280;801;47.982;7.810;2024-01-10T01:47:33;99366.31;;;-2.04;100.00
1616;BME280;801;47.982;7.810;2024-01-10T01:49:59;99368.72;;;-2.27;100.00
1616;BME280;801;47.982;7.810;2024-01-10T01:52:29;99365.56;;;-2.31;100.00
1616;BME280;801;47.982;7.810;2024-01-10T01:54:56;99376.09;;;-2.31;100.00
1616;BME280;801;47.982;7.810;2024-01-10T01:57:23;99382.53;;;-2.25;100.00
1616;BME280;801;47.982;7.810;2024-01-10T01:59:50;99378.03;;;-1.98;100.00
1616;BME280;801;47.982;7.810;2024-01-10T02:02:17;99378.31;;;-2.01;100.00
1616;BME280;801;47.982;7.810;2024-01-10T02:04:45;99381.78;;;-2.09;100.00
1616;BME280;801;47.982;7.810;2024-01-10T02:07:12;99378.47;;;-2.11;100.00
1616;BME280;801;47.982;7.810;2024-01-10T02:09:40;99387.34;;;-2.20;100.00
1616;BME280;801;47.982;7.810;2024-01-10T02:12:07;99395.81;;;-2.35;100.00
1616;BME280;801;47.982;7.810;2024-01-10T02:14:33;99399.56;;;-2.45;100.00
1616;BME280;801;47.982;7.810;2024-01-10T02:17:00;99404.34;;;-2.41;100.00
1616;BME280;801;47.982;7.810;2024-01-10T02:19:26;99400.66;;;-2.22;100.00
1616;BME280;801;47.982;7.810;2024-01-10T02:21:54;99402.47;;;-2.22;100.00
1616;BME280;801;47.982;7.810;2024-01-10T02:24:21;99419.16;;;-2.40;100.00
1616;BME280;801;47.982;7.810;2024-01-10T02:26:49;99407.34;;;-2.36;100.00
1616;BME280;801;47.982;7.810;2024-01-10T02:29:16;99405.22;;;-2.32;100.00
1616;BME280;801;47.982;7.810;2024-01-10T02:31:42;99402.47;;;-2.22;100.00
1616;BME280;801;47.982;7.810;2024-01-10T02:34:09;99401.28;;;-2.28;100.00
1616;BME280;801;47.982;7.810;2024-01-10T02:36:35;99399.50;;;-2.27;100.00
1616;BME280;801;47.982;7.810;2024-01-10T02:39:02;99400.41;;;-2.37;100.00
1616;BME280;801;47.982;7.810;2024-01-10T02:41:28;99396.28;;;-2.39;100.00
1616;BME280;801;47.982;7.810;2024-01-10T02:43:56;99393.88;;;-2.24;100.00
1616;BME280;801;47.982;7.810;2024-01-10T02:46:24;99393.69;;;-2.31;100.00
1616;BME280;801;47.982;7.810;2024-01-10T02:48:53;99394.38;;;-2.29;100.00
1616;BME280;801;47.982;7.810;2024-01-10T02:51:19;99383.03;;;-2.30;100.00
1616;BME280;801;47.982;7.810;2024-01-10T02:53:46;99390.78;;;-2.20;100.00
1616;BME280;801;47.982;7.810;2024-01-10T02:56:13;99390.53;;;-2.35;100.00
1616;BME280;801;47.982;7.810;2024-01-10T02:58:39;99385.00;;;-2.23;100.00
1616;BME280;801;47.982;7.810;2024-01-10T03:01:07;99379.97;;;-2.09;100.00
1616;BME280;801;47.982;7.810;2024-01-10T03:03:34;99390.78;;;-2.20;100.00
1616;BME280;801;47.982;7.810;2024-01-10T03:06:01;99378.69;;;-1.96;100.00
1616;BME280;801;47.982;7.810;2024-01-10T03:08:27;99379.81;;;-1.99;100.00
1616;BME280;801;47.982;7.810;2024-01-10T03:10:53;99370.28;;;-2.00;100.00
1616;BME280;801;47.982;7.810;2024-01-10T03:13:20;99377.31;;;-2.09;100.00
1616;BME280;801;47.982;7.810;2024-01-10T03:15:46;99379.72;;;-2.32;100.00
1616;BME280;801;47.982;7.810;2024-01-10T03:18:14;99372.63;;;-2.31;100.00
1616;BME280;801;47.982;7.810;2024-01-10T03:20:41;99369.09;;;-2.48;100.00
1616;BME280;801;47.982;7.810;2024-01-10T03:23:07;99375.69;;;-2.44;100.00
1616;BME280;801;47.982;7.810;2024-01-10T03:25:33;99370.16;;;-2.33;100.00
1616;BME280;801;47.982;7.810;2024-01-10T03:28:00;99369.84;;;-2.30;100.00
1616;BME280;801;47.982;7.810;2024-01-10T03:30:26;99371.44;;;-2.37;100.00
1616;BME280;801;47.982;7.810;2024-01-10T03:32:53;99365.78;;;-2.16;100.00
1616;BME280;801;47.982;7.810;2024-01-10T03:35:21;99367.59;;;-2.08;100.00
1616;BME280;801;47.982;7.810;2024-01-10T03:37:47;99366.28;;;-2.12;100.00
1616;BME280;801;47.982;7.810;2024-01-10T03:40:14;99367.59;;;-2.08;100.00
1616;BME280;801;47.982;7.810;2024-01-10T03:42:40;99365.13;;;-2.18;100.00
1616;BME280;801;47.982;7.810;2024-01-10T03:45:07;99359.75;;;-2.00;100.00
1616;BME280;801;47.982;7.810;2024-01-10T03:47:33;99355.31;;;-1.91;100.00
1616;BME280;801;47.982;7.810;2024-01-10T03:50:00;99361.44;;;-1.82;100.00
1616;BME280;801;47.982;7.810;2024-01-10T03:52:27;99358.78;;;-1.91;100.00
1616;BME280;801;47.982;7.810;2024-01-10T03:54:54;99356.50;;;-1.77;100.00
1616;BME280;801;47.982;7.810;2024-01-10T03:57:20;99347.59;;;-1.68;100.00
1616;BME280;801;47.982;7.810;2024-01-10T03:59:47;99364.44;;;-1.69;100.00
1616;BME280;801;47.982;7.810;2024-01-10T04:02:13;99357.97;;;-1.83;100.00
1616;BME280;801;47.982;7.810;2024-01-10T04:04:40;99349.19;;;-2.00;100.00
1616;BME280;801;47.982;7.810;2024-01-10T04:07:06;99351.00;;;-1.92;100.00
1616;BME280;801;47.982;7.810;2024-01-10T04:09:35;99349.91;;;-1.90;100.00
1616;BME280;801;47.982;7.810;2024-01-10T04:12:01;99357.44;;;-2.03;100.00
1616;BME280;801;47.982;7.810;2024-01-10T04:14:28;99359.00;;;-2.26;100.00
1616;BME280;801;47.982;7.810;2024-01-10T04:16:54;99365.13;;;-2.18;100.00
1616;BME280;801;47.982;7.810;2024-01-10T04:19:21;99351.78;;;-2.16;100.00
1616;BME280;801;47.982;7.810;2024-01-10T04:21:47;99360.31;;;-2.22;100.00
1616;BME280;801;47.982;7.810;2024-01-10T04:24:14;99358.66;;;-2.32;100.00
1616;BME280;801;47.982;7.810;2024-01-10T04:26:41;99354.38;;;-2.24;100.00
1616;BME280;801;47.982;7.810;2024-01-10T04:29:08;99360.66;;;-2.25;100.00
1616;BME280;801;47.982;7.810;2024-01-10T04:31:34;99362.28;;;-2.24;100.00
1616;BME280;801;47.982;7.810;2024-01-10T04:34:01;99363.28;;;-2.25;100.00
1616;BME280;801;47.982;7.810;2024-01-10T04:36:28;99364.78;;;-2.23;100.00
1616;BME280;801;47.982;7.810;2024-01-10T04:38:54;99356.69;;;-2.21;100.00
1616;BME280;801;47.982;7.810;2024-01-10T04:41:21;99354.91;;;-2.13;100.00
1616;BME280;801;47.982;7.810;2024-01-10T04:43:48;99367.22;;;-2.21;100.00
1616;BME280;801;47.982;7.810;2024-01-10T04:46:15;99367.50;;;-2.41;100.00
1616;BME280;801;47.982;7.810;2024-01-10T04:48:41;99369.22;;;-2.58;100.00
1616;BME280;801;47.982;7.810;2024-01-10T04:51:08;99368.75;;;-2.53;100.00
1616;BME280;801;47.982;7.810;2024-01-10T04:53:35;99374.63;;;-2.59;100.00
1616;BME280;801;47.982;7.810;2024-01-10T04:56:01;99374.16;;;-2.55;100.00
1616;BME280;801;47.982;7.810;2024-01-10T04:58:28;99372.44;;;-2.38;100.00
1616;BME280;801;47.982;7.810;2024-01-10T05:00:56;99371.00;;;-2.32;100.00
1616;BME280;801;47.982;7.810;2024-01-10T05:03:22;99367.31;;;-2.39;100.00
1616;BME280;801;47.982;7.810;2024-01-10T05:05:48;99371.03;;;-2.58;100.00
1616;BME280;801;47.982;7.810;2024-01-10T05:08:14;99362.91;;;-2.31;100.00
1616;BME280;801;47.982;7.810;2024-01-10T05:10:45;99368.13;;;-2.47;100.00
1616;BME280;801;47.982;7.810;2024-01-10T05:13:12;99365.84;;;-2.42;100.00
1616;BME280;801;47.982;7.810;2024-01-10T05:15:38;99368.56;;;-2.17;100.00
1616;BME280;801;47.982;7.810;2024-01-10T05:18:06;99374.72;;;-2.00;100.00
1616;BME280;801;47.982;7.810;2024-01-10T05:20:33;99366.97;;;-2.02;100.00
1616;BME280;801;47.982;7.810;2024-01-10T05:22:59;99360.09;;;-1.86;100.00
1616;BME280;801;47.982;7.810;2024-01-10T05:25:26;99369.31;;;-1.91;100.00
1616;BME280;801;47.982;7.810;2024-01-10T05:27:54;99368.69;;;-1.84;100.00
1616;BME280;801;47.982;7.810;2024-01-10T05:30:21;99367.16;;;-1.95;100.00
1616;BME280;801;47.982;7.810;2024-01-10T05:32:47;99369.50;;;-1.84;100.00
1616;BME280;801;47.982;7.810;2024-01-10T05:35:15;99367.16;;;-1.95;100.00
1616;BME280;801;47.982;7.810;2024-01-10T05:37:42;99363.63;;;-2.12;100.00
1616;BME280;801;47.982;7.810;2024-01-10T05:40:10;99365.59;;;-2.22;100.00
1616;BME280;801;47.982;7.810;2024-01-10T05:42:37;99364.00;;;-2.07;100.00
1616;BME280;801;47.982;7.810;2024-01-10T05:45:04;99373.91;;;-2.01;100.00
1616;BME280;801;47.982;7.810;2024-01-10T05:47:31;99360.56;;;-1.99;100.00
1616;BME280;801;47.982;7.810;2024-01-10T05:49:57;99366.69;;;-1.82;100.00
1616;BME280;801;47.982;7.810;2024-01-10T05:52:25;99358.31;;;-1.78;100.00
1616;BME280;801;47.982;7.810;2024-01-10T05:54:52;99363.41;;;-1.84;100.00
1616;BME280;801;47.982;7.810;2024-01-10T05:57:19;99362.75;;;-1.78;100.00
1616;BME280;801;47.982;7.810;2024-01-10T05:59:46;99353.53;;;-1.74;100.00
1616;BME280;801;47.982;7.810;2024-01-10T06:02:13;99359.13;;;-1.77;100.00
1616;BME280;801;47.982;7.810;2024-01-10T06:04:41;99354.88;;;-1.62;100.00
1616;BME280;801;47.982;7.810;2024-01-10T06:07:08;99354.84;;;-1.78;100.00
1616;BME280;801;47.982;7.810;2024-01-10T06:09:35;99350.72;;;-1.73;100.00
1616;BME280;801;47.982;7.810;2024-01-10T06:12:02;99360.91;;;-1.86;100.00
1616;BME280;801;47.982;7.810;2024-01-10T06:14:29;99361.38;;;-2.07;100.00
1616;BME280;801;47.982;7.810;2024-01-10T06:16:56;99362.38;;;-2.00;100.00
1616;BME280;801;47.982;7.810;2024-01-10T06:19:24;99359.69;;;-2.16;100.00
1616;BME280;801;47.982;7.810;2024-01-10T06:21:51;99362.34;;;-2.16;100.00
1616;BME280;801;47.982;7.810;2024-01-10T06:24:18;99365.44;;;-2.13;100.00
1616;BME280;801;47.982;7.810;2024-01-10T06:26:46;99361.19;;;-2.14;100.00
1616;BME280;801;47.982;7.810;2024-01-10T06:29:14;99368.75;;;-2.19;100.00
1616;BME280;801;47.982;7.810;2024-01-10T06:31:41;99371.28;;;-2.35;100.00
1616;BME280;801;47.982;7.810;2024-01-10T06:34:07;99372.59;;;-2.39;100.00
1616;BME280;801;47.982;7.810;2024-01-10T06:36:34;99379.03;;;-2.34;100.00
1616;BME280;801;47.982;7.810;2024-01-10T06:39:01;99379.66;;;-2.40;100.00
1616;BME280;801;47.982;7.810;2024-01-10T06:41:27;99381.34;;;-2.39;100.00
1616;BME280;801;47.982;7.810;2024-01-10T06:43:56;99392.84;;;-2.40;100.00
1616;BME280;801;47.982;7.810;2024-01-10T06:46:22;99391.34;;;-2.42;100.00
1616;BME280;801;47.982;7.810;2024-01-10T06:48:48;99383.56;;;-2.52;100.00
1616;BME280;801;47.982;7.810;2024-01-10T06:51:15;99384.94;;;-2.40;100.00
1616;BME280;801;47.982;7.810;2024-01-10T06:53:42;99391.56;;;-2.62;100.00
1616;BME280;801;47.982;7.810;2024-01-10T06:56:09;99390.25;;;-2.23;100.00
1616;BME280;801;47.982;7.810;2024-01-10T06:58:36;99393.56;;;-2.21;100.00
1616;BME280;801;47.982;7.810;2024-01-10T07:01:04;99389.97;;;-2.20;100.00
1616;BME280;801;47.982;7.810;2024-01-10T07:03:30;99399.13;;;-2.33;100.00
1616;BME280;801;47.982;7.810;2024-01-10T07:05:57;99395.78;;;-2.43;100.00
1616;BME280;801;47.982;7.810;2024-01-10T07:08:25;99397.13;;;-2.39;100.00
1616;BME280;801;47.982;7.810;2024-01-10T07:10:51;99400.16;;;-2.25;100.00
1616;BME280;801;47.982;7.810;2024-01-10T07:13:20;99401.53;;;-2.39;100.00
1616;BME280;801;47.982;7.810;2024-01-10T07:15:47;99400.59;;;-2.30;100.00
1616;BME280;801;47.982;7.810;2024-01-10T07:18:17;99400.41;;;-2.37;100.00
1616;BME280;801;47.982;7.810;2024-01-10T07:20:43;99407.34;;;-2.36;100.00
1616;BME280;801;47.982;7.810;2024-01-10T07:23:10;99405.38;;;-2.34;100.00
1616;BME280;801;47.982;7.810;2024-01-10T07:25:36;99412.53;;;-2.52;100.00
1616;BME280;801;47.982;7.810;2024-01-10T07:28:04;99408.06;;;-2.52;100.00
1616;BME280;801;47.982;7.810;2024-01-10T07:30:30;99413.00;;;-2.22;100.00
1616;BME280;801;47.982;7.810;2024-01-10T07:32:58;99416.78;;;-2.17;100.00
1616;BME280;801;47.982;7.810;2024-01-10T07:35:26;99414.44;;;-2.28;100.00
1616;BME280;801;47.982;7.810;2024-01-10T07:37:54;99416.59;;;-2.23;100.00
1616;BME280;801;47.982;7.810;2024-01-10T07:40:21;99408.25;;;-2.11;100.00
1616;BME280;801;47.982;7.810;2024-01-10T07:42:48;99410.69;;;-1.83;100.00
1616;BME280;801;47.982;7.810;2024-01-10T07:45:14;99417.13;;;-1.69;100.00
1616;BME280;801;47.982;7.810;2024-01-10T07:47:41;99422.53;;;-1.79;100.00
1616;BME280;801;47.982;7.810;2024-01-10T07:50:08;99423.44;;;-1.54;100.00
1616;BME280;801;47.982;7.810;2024-01-10T07:52:36;99420.94;;;-1.55;100.00
1616;BME280;801;47.982;7.810;2024-01-10T07:55:03;99421.47;;;-1.52;100.00
1616;BME280;801;47.982;7.810;2024-01-10T07:57:31;99420.13;;;-1.56;100.00
1616;BME280;801;47.982;7.810;2024-01-10T07:59:59;99420.44;;;-1.59;100.00
1616;BME280;801;47.982;7.810;2024-01-10T08:02:25;99414.69;;;-1.46;100.00
1616;BME280;801;47.982;7.810;2024-01-10T08:04:52;99422.09;;;-1.58;100.00
1616;BME280;801;47.982;7.810;2024-01-10T08:07:18;99416.13;;;-1.76;100.00
1616;BME280;801;47.982;7.810;2024-01-10T08:09:47;99423.03;;;-1.75;100.00
1616;BME280;801;47.982;7.810;2024-01-10T08:12:13;99417.66;;;-1.57;100.00
1616;BME280;801;47.982;7.810;2024-01-10T08:14:41;99422.47;;;-1.44;100.00
1616;BME280;801;47.982;7.810;2024-01-10T08:17:11;99425.41;;;-1.56;100.00
1616;BME280;801;47.982;7.810;2024-01-10T08:19:37;99420.78;;;-1.46;100.00
1616;BME280;801;47.982;7.810;2024-01-10T08:22:04;99422.78;;;-1.39;100.00
1616;BME280;801;47.982;7.810;2024-01-10T08:24:33;99424.44;;;-1.47;100.00
1616;BME280;801;47.982;7.810;2024-01-10T08:27:00;99432.63;;;-1.50;100.00
1616;BME280;801;47.982;7.810;2024-01-10T08:29:27;99430.91;;;-1.92;100.00
1616;BME280;801;47.982;7.810;2024-01-10T08:31:56;99423.31;;;-1.95;100.00
1616;BME280;801;47.982;7.810;2024-01-10T08:34:23;99430.13;;;-1.76;100.00
1616;BME280;801;47.982;7.810;2024-01-10T08:36:49;99428.66;;;-1.70;100.00
1616;BME280;801;47.982;7.810;2024-01-10T08:39:16;99428.13;;;-1.82;100.00
1616;BME280;801;47.982;7.810;2024-01-10T08:41:42;99440.34;;;-1.73;100.00
1616;BME280;801;47.982;7.810;2024-01-10T08:44:11;99430.81;;;-2.08;100.00
1616;BME280;801;47.982;7.810;2024-01-10T08:46:37;99435.22;;;-1.74;100.00
1616;BME280;801;47.982;7.810;2024-01-10T08:49:04;99440.09;;;-1.96;100.00
1616;BME280;801;47.982;7.810;2024-01-10T08:51:30;99437.38;;;-2.12;100.00
1616;BME280;801;47.982;7.810;2024-01-10T08:53:57;99446.53;;;-1.98;100.00
1616;BME280;801;47.982;7.810;2024-01-10T08:56:23;99445.03;;;-2.01;100.00
1616;BME280;801;47.982;7.810;2024-01-10T08:58:50;99439.47;;;-1.90;100.00
1616;BME280;801;47.982;7.810;2024-01-10T09:01:18;99443.06;;;-1.91;100.00
1616;BME280;801;47.982;7.810;2024-01-10T09:03:45;99444.09;;;-1.83;100.00
1616;BME280;801;47.982;7.810;2024-01-10T09:06:12;99445.22;;;-1.94;100.00
1616;BME280;801;47.982;7.810;2024-01-10T09:08:39;99451.66;;;-1.89;100.00
1616;BME280;801;47.982;7.810;2024-01-10T09:11:05;99458.13;;;-1.83;100.00
1616;BME280;801;47.982;7.810;2024-01-10T09:13:32;99450.41;;;-1.76;100.00
1616;BME280;801;47.982;7.810;2024-01-10T09:15:59;99456.91;;;-1.89;100.00
1616;BME280;801;47.982;7.810;2024-01-10T09:18:27;99466.84;;;-1.82;100.00
1616;BME280;801;47.982;7.810;2024-01-10T09:20:53;99465.06;;;-1.74;100.00
1616;BME280;801;47.982;7.810;2024-01-10T09:23:20;99456.38;;;-1.58;100.00
1616;BME280;801;47.982;7.810;2024-01-10T09:25:46;99458.16;;;-1.67;100.00
1616;BME280;801;47.982;7.810;2024-01-10T09:28:13;99448.91;;;-1.71;100.00
1616;BME280;801;47.982;7.810;2024-01-10T09:30:39;99450.44;;;-1.60;100.00
1616;BME280;801;47.982;7.810;2024-01-10T09:33:06;99453.72;;;-1.50;100.00
1616;BME280;801;47.982;7.810;2024-01-10T09:35:33;99448.75;;;-1.69;100.00
1616;BME280;801;47.982;7.810;2024-01-10T09:38:00;99453.44;;;-1.47;100.00
1616;BME280;801;47.982;7.810;2024-01-10T09:40:26;99456.78;;;-1.20;100.00
1616;BME280;801;47.982;7.810;2024-01-10T09:42:54;99451.16;;;-0.92;100.00
1616;BME280;801;47.982;7.810;2024-01-10T09:45:21;99449.53;;;-1.01;100.00
1616;BME280;801;47.982;7.810;2024-01-10T09:47:52;99449.50;;;-0.85;100.00
1616;BME280;801;47.982;7.810;2024-01-10T09:50:18;99463.69;;;-0.53;100.00
1616;BME280;801;47.982;7.810;2024-01-10T09:52:50;99471.78;;;-0.63;100.00
1616;BME280;801;47.982;7.810;2024-01-10T09:55:17;99472.28;;;-0.51;100.00
1616;BME280;801;47.982;7.810;2024-01-10T09:57:46;99480.16;;;-0.43;100.00
1616;BME280;801;47.982;7.810;2024-01-10T10:00:15;99483.44;;;-0.25;100.00
1616;BME280;801;47.982;7.810;2024-01-10T10:02:42;99472.94;;;-0.66;100.00
1616;BME280;801;47.982;7.810;2024-01-10T10:05:12;99480.88;;;-0.82;100.00
1616;BME280;801;47.982;7.810;2024-01-10T10:07:44;99487.13;;;-0.75;100.00
1616;BME280;801;47.982;7.810;2024-01-10T10:10:12;99487.13;;;-0.58;100.00
1616;BME280;801;47.982;7.810;2024-01-10T10:12:44;99485.81;;;-0.87;100.00
1616;BME280;801;47.982;7.810;2024-01-10T10:15:13;99492.25;;;-0.81;100.00
1616;BME280;801;47.982;7.810;2024-01-10T10:17:40;99496.03;;;-0.43;100.00
1616;BME280;801;47.982;7.810;2024-01-10T10:20:12;99486.31;;;-0.51;100.00
1616;BME280;801;47.982;7.810;2024-01-10T10:22:40;99488.78;;;-0.74;100.00
1616;BME280;801;47.982;7.810;2024-01-10T10:25:15;99490.78;;;-0.76;100.00
1616;BME280;801;47.982;7.810;2024-01-10T10:27:42;99501.00;;;-0.89;100.00
1616;BME280;801;47.982;7.810;2024-01-10T10:30:09;99507.44;;;-0.75;100.00
1616;BME280;801;47.982;7.810;2024-01-10T10:32:35;99503.13;;;-0.35;100.00
1616;BME280;801;47.982;7.810;2024-01-10T10:35:03;99495.03;;;-0.83;100.00
1616;BME280;801;47.982;7.810;2024-01-10T10:37:30;99498.16;;;-0.38;100.00
1616;BME280;801;47.982;7.810;2024-01-10T10:39:56;99492.75;;;-0.61;100.00
1616;BME280;801;47.982;7.810;2024-01-10T10:42:25;99499.28;;;-0.25;100.00
1616;BME280;801;47.982;7.810;2024-01-10T10:44:58;99503.59;;;-0.15;100.00
1616;BME280;801;47.982;7.810;2024-01-10T10:47:31;99509.69;;;0.33;100.00
1616;BME280;801;47.982;7.810;2024-01-10T10:50:00;99498.25;;;-0.07;100.00
1616;BME280;801;47.982;7.810;2024-01-10T10:52:29;99491.94;;;0.02;100.00
1616;BME280;801;47.982;7.810;2024-01-10T10:54:58;99494.84;;;0.32;100.00
1616;BME280;801;47.982;7.810;2024-01-10T10:57:27;99491.00;;;0.43;100.00
1616;BME280;801;47.982;7.810;2024-01-10T10:59:55;99489.16;;;0.74;100.00
1616;BME280;801;47.982;7.810;2024-01-10T11:02:22;99479.09;;;1.16;100.00
1616;BME280;801;47.982;7.810;2024-01-10T11:04:49;99473.78;;;1.01;100.00
1616;BME280;801;47.982;7.810;2024-01-10T11:07:16;99471.03;;;1.09;100.00
1616;BME280;801;47.982;7.810;2024-01-10T11:09:45;99483.75;;;2.19;100.00
1616;BME280;801;47.982;7.810;2024-01-10T11:12:21;99475.22;;;3.40;100.00
1616;BME280;801;47.982;7.810;2024-01-10T11:15:05;99472.53;;;4.37;100.00
1616;BME280;801;47.982;7.810;2024-01-10T11:17:54;99461.00;;;4.24;100.00
1616;BME280;801;47.982;7.810;2024-01-10T11:20:39;99472.53;;;3.68;100.00
1616;BME280;801;47.982;7.810;2024-01-10T11:23:33;99468.28;;;2.96;100.00
1616;BME280;801;47.982;7.810;2024-01-10T11:26:04;99464.88;;;2.65;100.00
1616;BME280;801;47.982;7.810;2024-01-10T11:28:31;99465.56;;;3.10;100.00
1616;BME280;801;47.982;7.810;2024-01-10T11:30:59;99474.44;;;3.74;100.00
1616;BME280;801;47.982;7.810;2024-01-10T11:33:31;99473.91;;;4.82;98.29
1616;BME280;801;47.982;7.810;2024-01-10T11:36:12;99479.31;;;5.35;93.88
1616;BME280;801;47.982;7.810;2024-01-10T11:38:41;99472.97;;;5.49;93.14
1616;BME280;801;47.982;7.810;2024-01-10T11:41:10;99474.59;;;5.64;91.49
1616;BME280;801;47.982;7.810;2024-01-10T11:43:37;99475.66;;;5.49;86.66
1616;BME280;801;47.982;7.810;2024-01-10T11:46:06;99470.94;;;5.25;86.76
1616;BME280;801;47.982;7.810;2024-01-10T11:48:32;99467.00;;;5.74;84.50
1616;BME280;801;47.982;7.810;2024-01-10T11:50:59;99463.06;;;4.90;84.26
1616;BME280;801;47.982;7.810;2024-01-10T11:53:42;99464.13;;;5.15;88.38
1616;BME280;801;47.982;7.810;2024-01-10T11:56:12;99462.31;;;5.16;85.34
1616;BME280;801;47.982;7.810;2024-01-10T11:59:01;99457.19;;;5.41;83.57
1616;BME280;801;47.982;7.810;2024-01-10T12:01:30;99458.97;;;6.59;75.21
1616;BME280;801;47.982;7.810;2024-01-10T12:03:57;99457.88;;;6.21;76.60
1616;BME280;801;47.982;7.810;2024-01-10T12:06:26;99457.25;;;6.26;76.04
1616;BME280;801;47.982;7.810;2024-01-10T12:08:53;99456.56;;;7.46;71.64
1616;BME280;801;47.982;7.810;2024-01-10T12:11:19;99447.19;;;7.05;70.08
1616;BME280;801;47.982;7.810;2024-01-10T12:13:46;99443.31;;;6.62;70.80
1616;BME280;801;47.982;7.810;2024-01-10T12:16:13;99452.53;;;6.28;71.95
1616;BME280;801;47.982;7.810;2024-01-10T12:18:41;99447.38;;;6.72;70.79
1616;BME280;801;47.982;7.810;2024-01-10T12:21:08;99440.56;;;6.37;68.56
1616;BME280;801;47.982;7.810;2024-01-10T12:23:35;99440.88;;;6.61;66.80
1616;BME280;801;47.982;7.810;2024-01-10T12:26:04;99434.94;;;6.59;68.21
1616;BME280;801;47.982;7.810;2024-01-10T12:28:33;99444.97;;;7.27;65.96
1616;BME280;801;47.982;7.810;2024-01-10T12:31:02;99438.13;;;7.56;64.68
1616;BME280;801;47.982;7.810;2024-01-10T12:33:30;99454.44;;;6.14;64.13
1616;BME280;801;47.982;7.810;2024-01-10T12:36:08;99444.03;;;5.59;69.78
1616;BME280;801;47.982;7.810;2024-01-10T12:38:36;99446.81;;;6.18;70.46
1616;BME280;801;47.982;7.810;2024-01-10T12:41:04;99451.91;;;6.26;69.89
1616;BME280;801;47.982;7.810;2024-01-10T12:43:34;99451.00;;;5.74;69.95
1616;BME280;801;47.982;7.810;2024-01-10T12:46:08;99456.47;;;6.19;68.33
1616;BME280;801;47.982;7.810;2024-01-10T12:48:36;99448.91;;;6.93;67.88
1616;BME280;801;47.982;7.810;2024-01-10T12:51:03;99449.09;;;6.98;67.94
1616;BME280;801;47.982;7.810;2024-01-10T12:53:34;99453.50;;;7.86;62.94
1616;BME280;801;47.982;7.810;2024-01-10T12:56:01;99444.75;;;6.65;63.56
1616;BME280;801;47.982;7.810;2024-01-10T12:58:27;99449.91;;;6.60;64.00
1616;BME280;801;47.982;7.810;2024-01-10T13:00:54;99443.03;;;6.46;65.38
1616;BME280;801;47.982;7.810;2024-01-10T13:03:21;99441.50;;;5.91;67.28
1616;BME280;801;47.982;7.810;2024-01-10T13:05:48;99448.31;;;6.52;66.09
1616;BME280;801;47.982;7.810;2024-01-10T13:08:15;99450.16;;;6.52;63.64
1616;BME280;801;47.982;7.810;2024-01-10T13:10:42;99441.75;;;5.83;65.92
1616;BME280;801;47.982;7.810;2024-01-10T13:13:09;99437.53;;;6.72;65.19
1616;BME280;801;47.982;7.810;2024-01-10T13:15:35;99445.91;;;7.83;62.83
1616;BME280;801;47.982;7.810;2024-01-10T13:18:02;99439.59;;;7.77;61.17
1616;BME280;801;47.982;7.810;2024-01-10T13:20:29;99437.53;;;6.72;64.82
1616;BME280;801;47.982;7.810;2024-01-10T13:22:55;99447.28;;;5.95;65.25
1616;BME280;801;47.982;7.810;2024-01-10T13:25:22;99449.34;;;5.99;65.82
1616;BME280;801;47.982;7.810;2024-01-10T13:27:50;99454.88;;;5.65;67.19